createdAt,value
2023-05-04T00:00:20.830Z,0.50
2023-05-04T00:01:20.825Z,0.50
2023-05-04T00:02:20.815Z,0.50
2023-05-04T00:03:20.951Z,0.41
2023-05-04T00:04:20.825Z,0.38
2023-05-04T00:05:20.785Z,0.38
2023-05-04T00:06:20.846Z,0.38
2023-05-04T00:07:20.762Z,0.40
2023-05-04T00:08:20.784Z,0.43
2023-05-04T00:09:20.765Z,0.48
2023-05-04T00:10:20.749Z,0.50
2023-05-04T00:11:20.746Z,0.51
2023-05-04T00:12:20.745Z,0.50
2023-05-04T00:13:20.758Z,0.50
2023-05-04T00:14:20.723Z,0.50
2023-05-04T00:15:20.711Z,0.50
2023-05-04T00:16:20.744Z,0.50
2023-05-04T00:17:20.712Z,0.50
2023-05-04T00:18:20.688Z,0.50
2023-05-04T00:19:20.683Z,0.50
2023-05-04T00:20:20.680Z,0.51
2023-05-04T00:21:20.659Z,0.50
2023-05-04T00:22:20.668Z,0.51
2023-05-04T00:23:20.662Z,0.50
2023-05-04T00:24:20.665Z,0.50
2023-05-04T00:25:20.678Z,0.51
2023-05-04T00:26:20.701Z,0.50
2023-05-04T00:27:20.722Z,0.50
2023-05-04T00:28:20.750Z,0.51
2023-05-04T00:29:20.786Z,0.51
2023-05-04T00:30:20.774Z,0.50
2023-05-04T00:31:20.849Z,0.50
2023-05-04T00:32:21.687Z,0.50
2023-05-04T00:33:20.853Z,0.51
2023-05-04T00:34:20.853Z,0.51
2023-05-04T00:35:20.871Z,0.50
2023-05-04T00:36:20.892Z,0.50
2023-05-04T00:37:20.906Z,0.50
2023-05-04T00:38:20.927Z,0.51
2023-05-04T00:39:20.955Z,0.51
2023-05-04T00:40:20.964Z,0.50
2023-05-04T00:41:20.983Z,0.50
2023-05-04T00:42:21.006Z,0.51
2023-05-04T00:43:21.024Z,0.50
2023-05-04T00:44:21.049Z,0.51
2023-05-04T00:45:21.114Z,0.50
2023-05-04T00:46:21.092Z,0.50
2023-05-04T00:47:21.171Z,0.51
2023-05-04T00:48:21.141Z,0.50
2023-05-04T00:49:21.155Z,0.51
2023-05-04T00:50:21.165Z,0.51
2023-05-04T00:51:21.204Z,0.51
2023-05-04T00:52:21.214Z,0.51
2023-05-04T00:53:21.249Z,0.51
2023-05-04T00:54:21.262Z,0.50
2023-05-04T00:55:21.294Z,0.50
2023-05-04T00:56:21.311Z,0.51
2023-05-04T00:57:21.375Z,0.50
2023-05-04T00:58:21.359Z,0.52
2023-05-04T00:59:21.381Z,0.51
2023-05-04T01:00:21.392Z,0.51
2023-05-04T01:01:21.479Z,0.51
2023-05-04T01:02:21.430Z,0.51
2023-05-04T01:03:21.513Z,0.51
2023-05-04T01:04:21.489Z,0.51
2023-05-04T01:05:21.522Z,0.51
2023-05-04T01:06:21.530Z,0.51
2023-05-04T01:07:21.555Z,0.51
2023-05-04T01:08:21.587Z,0.51
2023-05-04T01:09:21.610Z,0.51
2023-05-04T01:10:21.624Z,0.51
2023-05-04T01:11:21.652Z,0.51
2023-05-04T01:12:21.678Z,0.50
2023-05-04T01:13:21.700Z,0.51
2023-05-04T01:14:21.712Z,0.51
2023-05-04T01:15:21.734Z,0.51
2023-05-04T01:16:21.773Z,0.51
2023-05-04T01:17:21.908Z,0.51
2023-05-04T01:18:21.803Z,0.52
2023-05-04T01:19:21.822Z,0.51
2023-05-04T01:20:21.838Z,0.51
2023-05-04T01:21:21.857Z,0.51
2023-05-04T01:22:21.885Z,0.51
2023-05-04T01:23:21.899Z,0.51
2023-05-04T01:24:21.919Z,0.51
2023-05-04T01:25:21.945Z,0.50
2023-05-04T01:26:21.970Z,0.51
2023-05-04T01:27:22.029Z,0.51
2023-05-04T01:28:22.009Z,0.52
2023-05-04T01:29:22.042Z,0.51
2023-05-04T01:30:22.061Z,0.51
2023-05-04T01:31:22.182Z,0.51
2023-05-04T01:32:22.231Z,0.51
2023-05-04T01:33:22.157Z,0.51
2023-05-04T01:34:22.143Z,0.50
2023-05-04T01:35:22.162Z,0.51
2023-05-04T01:36:22.217Z,0.51
2023-05-04T01:37:22.213Z,0.51
2023-05-04T01:38:22.234Z,0.50
2023-05-04T01:39:22.261Z,0.51
2023-05-04T01:40:22.294Z,0.51
2023-05-04T01:41:22.310Z,0.51
2023-05-04T01:42:22.338Z,0.50
2023-05-04T01:43:22.371Z,0.51
2023-05-04T01:44:22.424Z,0.50
2023-05-04T01:45:22.415Z,0.51
2023-05-04T01:46:22.518Z,0.51
2023-05-04T01:47:22.502Z,0.51
2023-05-04T01:48:22.499Z,0.51
2023-05-04T01:49:22.542Z,0.51
2023-05-04T01:50:22.558Z,0.51
2023-05-04T01:51:22.574Z,0.51
2023-05-04T01:52:22.623Z,0.51
2023-05-04T01:53:22.628Z,0.50
2023-05-04T01:54:22.663Z,0.50
2023-05-04T01:55:22.706Z,0.51
2023-05-04T01:56:22.721Z,0.51
2023-05-04T01:57:22.745Z,0.51
2023-05-04T01:58:22.765Z,0.51
2023-05-04T01:59:22.798Z,0.50
2023-05-04T02:00:22.824Z,0.52
2023-05-04T02:01:22.883Z,0.52
2023-05-04T02:02:22.873Z,0.51
2023-05-04T02:03:22.988Z,0.51
2023-05-04T02:04:22.924Z,0.52
2023-05-04T02:05:22.998Z,0.51
2023-05-04T02:06:22.982Z,0.51
2023-05-04T02:07:23.004Z,0.51
2023-05-04T02:08:23.025Z,0.51
2023-05-04T02:09:23.070Z,0.51
2023-05-04T02:10:23.077Z,0.51
2023-05-04T02:11:23.104Z,0.51
2023-05-04T02:12:23.137Z,0.51
2023-05-04T02:13:23.162Z,0.51
2023-05-04T02:14:23.202Z,0.51
2023-05-04T02:15:23.218Z,0.51
2023-05-04T02:16:23.304Z,0.51
2023-05-04T02:17:23.329Z,0.51
2023-05-04T02:18:23.304Z,0.50
2023-05-04T02:19:23.335Z,0.51
2023-05-04T02:20:23.372Z,0.51
2023-05-04T02:21:23.441Z,0.51
2023-05-04T02:22:23.417Z,0.51
2023-05-04T02:23:23.439Z,0.51
2023-05-04T02:24:23.471Z,0.51
2023-05-04T02:25:23.498Z,0.51
2023-05-04T02:26:23.534Z,0.51
2023-05-04T02:27:23.573Z,0.50
2023-05-04T02:28:23.627Z,0.51
2023-05-04T02:29:23.603Z,0.52
2023-05-04T02:30:23.636Z,0.50
2023-05-04T02:31:23.690Z,0.51
2023-05-04T02:32:23.747Z,0.51
2023-05-04T02:33:23.750Z,0.52
2023-05-04T02:34:23.763Z,0.51
2023-05-04T02:35:23.789Z,0.51
2023-05-04T02:36:23.825Z,0.51
2023-05-04T02:37:23.892Z,0.50
2023-05-04T02:38:23.884Z,0.51
2023-05-04T02:39:23.923Z,0.51
2023-05-04T02:40:23.952Z,0.50
2023-05-04T02:41:23.991Z,0.50
2023-05-04T02:42:24.014Z,0.51
2023-05-04T02:43:24.048Z,0.50
2023-05-04T02:44:24.074Z,0.51
2023-05-04T02:45:24.210Z,0.50
2023-05-04T02:46:24.206Z,0.51
2023-05-04T02:47:24.194Z,0.51
2023-05-04T02:48:24.194Z,0.51
2023-05-04T02:49:24.310Z,0.50
2023-05-04T02:50:24.308Z,0.50
2023-05-04T02:51:24.321Z,0.50
2023-05-04T02:52:24.318Z,0.51
2023-05-04T02:53:24.381Z,0.51
2023-05-04T02:54:24.356Z,0.51
2023-05-04T02:55:24.393Z,0.51
2023-05-04T02:56:24.482Z,0.51
2023-05-04T02:57:24.458Z,0.51
2023-05-04T02:58:24.479Z,0.52
2023-05-04T02:59:24.520Z,0.51
2023-05-04T03:00:24.568Z,0.51
2023-05-04T03:01:24.591Z,0.50
2023-05-04T03:02:24.643Z,0.51
2023-05-04T03:03:24.633Z,0.50
2023-05-04T03:04:24.717Z,0.51
2023-05-04T03:05:24.696Z,0.51
2023-05-04T03:06:24.734Z,0.51
2023-05-04T03:07:24.775Z,0.52
2023-05-04T03:08:24.804Z,0.52
2023-05-04T03:09:24.845Z,0.51
2023-05-04T03:10:24.856Z,0.52
2023-05-04T03:11:24.882Z,0.51
2023-05-04T03:12:24.929Z,0.51
2023-05-04T03:13:24.950Z,0.51
2023-05-04T03:14:24.973Z,0.51
2023-05-04T03:15:25.009Z,0.50
2023-05-04T03:16:25.080Z,0.51
2023-05-04T03:17:25.084Z,0.51
2023-05-04T03:18:25.152Z,0.52
2023-05-04T03:19:25.160Z,0.52
2023-05-04T03:20:25.199Z,0.52
2023-05-04T03:21:25.223Z,0.52
2023-05-04T03:22:25.262Z,0.52
2023-05-04T03:23:25.302Z,0.52
2023-05-04T03:24:25.340Z,0.51
2023-05-04T03:25:25.398Z,0.51
2023-05-04T03:26:25.429Z,0.51
2023-05-04T03:27:25.448Z,0.51
2023-05-04T03:28:25.483Z,0.51
2023-05-04T03:29:25.510Z,0.51
2023-05-04T03:30:25.544Z,0.51
2023-05-04T03:31:25.589Z,0.52
2023-05-04T03:32:25.665Z,0.51
2023-05-04T03:33:25.661Z,0.50
2023-05-04T03:34:25.695Z,0.51
2023-05-04T03:35:25.721Z,0.51
2023-05-04T03:36:25.764Z,0.51
2023-05-04T03:37:25.808Z,0.51
2023-05-04T03:38:25.838Z,0.51
2023-05-04T03:39:25.876Z,0.50
2023-05-04T03:40:25.913Z,0.51
2023-05-04T03:41:26.007Z,0.51
2023-05-04T03:42:25.983Z,0.51
2023-05-04T03:43:26.035Z,0.50
2023-05-04T03:44:26.058Z,0.51
2023-05-04T03:45:26.756Z,0.51
2023-05-04T03:46:26.224Z,0.51
2023-05-04T03:47:26.221Z,0.50
2023-05-04T03:48:26.195Z,0.51
2023-05-04T03:49:26.239Z,0.50
2023-05-04T03:50:26.286Z,0.51
2023-05-04T03:51:26.306Z,0.51
2023-05-04T03:52:26.350Z,0.51
2023-05-04T03:53:26.378Z,0.51
2023-05-04T03:54:26.417Z,0.51
2023-05-04T03:55:26.448Z,0.51
2023-05-04T03:56:26.492Z,0.51
2023-05-04T03:57:26.551Z,0.51
2023-05-04T03:58:26.565Z,0.51
2023-05-04T03:59:26.597Z,0.50
2023-05-04T04:00:26.632Z,0.51
2023-05-04T04:01:26.680Z,0.51
2023-05-04T04:02:26.942Z,0.51
2023-05-04T04:03:26.941Z,0.50
2023-05-04T04:04:26.810Z,0.51
2023-05-04T04:05:26.822Z,0.51
2023-05-04T04:06:26.857Z,0.52
2023-05-04T04:07:26.899Z,0.51
2023-05-04T04:08:26.934Z,0.52
2023-05-04T04:09:26.973Z,0.51
2023-05-04T04:10:27.006Z,0.51
2023-05-04T04:11:27.052Z,0.52
2023-05-04T04:12:27.085Z,0.51
2023-05-04T04:13:27.144Z,0.51
2023-05-04T04:14:27.164Z,0.51
2023-05-04T04:15:27.197Z,0.51
2023-05-04T04:16:27.265Z,0.51
2023-05-04T04:17:27.294Z,0.51
2023-05-04T04:18:27.339Z,0.51
2023-05-04T04:19:27.374Z,0.51
2023-05-04T04:20:27.402Z,0.51
2023-05-04T04:21:27.431Z,0.51
2023-05-04T04:22:27.473Z,0.51
2023-05-04T04:23:27.504Z,0.51
2023-05-04T04:24:27.537Z,0.51
2023-05-04T04:25:27.587Z,0.51
2023-05-04T04:26:27.612Z,0.51
2023-05-04T04:27:27.714Z,0.52
2023-05-04T04:28:27.673Z,0.52
2023-05-04T04:29:27.753Z,0.51
2023-05-04T04:30:27.769Z,0.51
2023-05-04T04:31:27.851Z,0.50
2023-05-04T04:32:27.892Z,0.51
2023-05-04T04:33:27.873Z,0.51
2023-05-04T04:34:27.945Z,0.52
2023-05-04T04:35:27.983Z,0.51
2023-05-04T04:36:27.998Z,0.50
2023-05-04T04:37:28.031Z,0.52
2023-05-04T04:38:28.069Z,0.52
2023-05-04T04:39:28.174Z,0.51
2023-05-04T04:40:28.176Z,0.52
2023-05-04T04:41:28.193Z,0.51
2023-05-04T04:42:28.240Z,0.51
2023-05-04T04:43:28.280Z,0.51
2023-05-04T04:44:28.340Z,0.51
2023-05-04T04:45:28.462Z,0.50
2023-05-04T04:46:28.433Z,0.51
2023-05-04T04:47:28.520Z,0.51
2023-05-04T04:48:28.521Z,0.52
2023-05-04T04:49:28.542Z,0.51
2023-05-04T04:50:28.584Z,0.51
2023-05-04T04:51:28.628Z,0.52
2023-05-04T04:52:28.667Z,0.51
2023-05-04T04:53:28.738Z,0.52
2023-05-04T04:54:28.751Z,0.52
2023-05-04T04:55:28.793Z,0.50
2023-05-04T04:56:28.833Z,0.52
2023-05-04T04:57:31.232Z,0.51
2023-05-04T04:58:28.876Z,0.53
2023-05-04T04:59:28.865Z,0.52
2023-05-04T05:00:28.888Z,0.52
2023-05-04T05:01:29.013Z,0.51
2023-05-04T05:02:28.878Z,0.51
2023-05-04T05:03:28.840Z,0.51
2023-05-04T05:04:28.853Z,0.51
2023-05-04T05:05:31.597Z,0.51
2023-05-04T05:06:28.814Z,0.51
2023-05-04T05:07:28.807Z,0.51
2023-05-04T05:08:28.804Z,0.51
2023-05-04T05:09:28.798Z,0.51
2023-05-04T05:10:28.778Z,0.50
2023-05-04T05:11:28.778Z,0.50
2023-05-04T05:12:28.791Z,0.51
2023-05-04T05:13:28.756Z,0.51
2023-05-04T05:14:28.759Z,0.51
2023-05-04T05:15:28.766Z,0.52
2023-05-04T05:16:28.781Z,0.52
2023-05-04T05:17:28.861Z,0.51
2023-05-04T05:18:28.729Z,0.51
2023-05-04T05:19:28.726Z,0.51
2023-05-04T05:20:28.728Z,0.51
2023-05-04T05:21:28.710Z,0.51
2023-05-04T05:22:28.810Z,0.51
2023-05-04T05:23:28.706Z,0.51
2023-05-04T05:24:28.688Z,0.51
2023-05-04T05:25:28.678Z,0.52
2023-05-04T05:26:28.667Z,0.51
2023-05-04T05:27:28.665Z,0.51
2023-05-04T05:28:28.831Z,0.51
2023-05-04T05:29:28.678Z,0.50
2023-05-04T05:30:28.662Z,0.51
2023-05-04T05:31:28.671Z,0.51
2023-05-04T05:32:28.642Z,0.51
2023-05-04T05:33:28.730Z,0.52
2023-05-04T05:34:28.617Z,0.51
2023-05-04T05:35:28.606Z,0.52
2023-05-04T05:36:28.601Z,0.51
2023-05-04T05:37:29.842Z,0.52
2023-05-04T05:38:28.682Z,0.52
2023-05-04T05:39:28.769Z,0.51
2023-05-04T05:40:28.764Z,0.52
2023-05-04T05:41:28.832Z,0.54
2023-05-04T05:42:28.880Z,0.55
2023-05-04T05:43:29.305Z,0.62
2023-05-04T05:44:29.982Z,0.63
2023-05-04T05:45:29.032Z,0.60
2023-05-04T05:46:29.115Z,0.60
2023-05-04T05:47:29.182Z,0.61
2023-05-04T05:48:30.005Z,0.62
2023-05-04T05:49:29.239Z,0.62
2023-05-04T05:50:36.688Z,0.63
2023-05-04T05:51:29.235Z,0.63
2023-05-04T05:52:32.510Z,0.64
2023-05-04T05:53:29.349Z,0.63
2023-05-04T05:54:30.348Z,0.64
2023-05-04T05:55:29.330Z,0.66
2023-05-04T05:56:44.779Z,0.68
2023-05-04T05:57:36.622Z,0.63
2023-05-04T05:58:29.183Z,0.64
2023-05-04T05:59:29.153Z,0.66
2023-05-04T06:00:29.308Z,0.69
2023-05-04T06:01:29.155Z,0.75
2023-05-04T06:02:45.114Z,0.82
2023-05-04T06:03:36.694Z,0.64
2023-05-04T06:04:29.402Z,0.64
2023-05-04T06:05:29.142Z,0.66
2023-05-04T06:07:36.515Z,0.64
2023-05-04T06:08:29.424Z,0.64
2023-05-04T06:09:29.094Z,0.67
2023-05-04T06:10:29.133Z,0.71
2023-05-04T06:11:29.075Z,0.76
2023-05-04T06:12:29.328Z,0.87
2023-05-04T06:13:29.246Z,0.89
2023-05-04T06:14:30.448Z,0.88
2023-05-04T06:15:29.049Z,0.87
2023-05-04T06:16:29.066Z,0.86
2023-05-04T06:17:29.178Z,0.87
2023-05-04T06:18:29.119Z,0.86
2023-05-04T06:19:32.385Z,0.87
2023-05-04T06:20:29.125Z,0.87
2023-05-04T06:21:29.084Z,0.87
2023-05-04T06:22:29.319Z,0.86
2023-05-04T06:23:29.078Z,0.84
2023-05-04T06:24:29.069Z,0.85
2023-05-04T06:25:29.068Z,0.84
2023-05-04T06:26:29.047Z,0.84
2023-05-04T06:27:29.037Z,0.85
2023-05-04T06:28:29.042Z,0.84
2023-05-04T06:29:29.027Z,0.84
2023-05-04T06:30:29.092Z,0.83
2023-05-04T06:31:29.015Z,0.83
2023-05-04T06:32:32.549Z,0.84
2023-05-04T06:33:32.185Z,0.84
2023-05-04T06:34:28.985Z,0.84
2023-05-04T06:35:32.304Z,0.84
2023-05-04T06:36:28.977Z,0.84
2023-05-04T06:37:29.326Z,0.84
2023-05-04T06:38:32.328Z,0.84
2023-05-04T06:39:28.960Z,0.84
2023-05-04T06:40:28.977Z,0.84
2023-05-04T06:41:29.318Z,0.84
2023-05-04T06:42:28.926Z,0.83
2023-05-04T06:43:28.957Z,0.83
2023-05-04T06:44:28.933Z,0.82
2023-05-04T06:45:28.934Z,0.82
2023-05-04T06:46:29.322Z,0.81
2023-05-04T06:47:28.920Z,0.81
2023-05-04T06:48:32.151Z,0.81
2023-05-04T06:49:28.888Z,0.81
2023-05-04T06:50:28.880Z,0.81
2023-05-04T06:51:32.643Z,0.81
2023-05-04T06:52:44.492Z,0.81
2023-05-04T06:53:28.983Z,0.81
2023-05-04T06:54:28.931Z,0.82
2023-05-04T06:55:28.843Z,0.82
2023-05-04T06:56:28.837Z,0.82
2023-05-04T06:57:29.310Z,0.82
2023-05-04T06:58:28.821Z,0.81
2023-05-04T06:59:28.828Z,0.80
2023-05-04T07:00:28.818Z,0.80
2023-05-04T07:01:28.848Z,0.80
2023-05-04T07:02:28.864Z,0.80
2023-05-04T07:03:28.799Z,0.79
2023-05-04T07:04:28.794Z,0.78
2023-05-04T07:05:28.795Z,0.79
2023-05-04T07:06:28.796Z,0.80
2023-05-04T07:07:28.801Z,0.79
2023-05-04T07:08:28.758Z,0.78
2023-05-04T07:09:28.755Z,0.79
2023-05-04T07:10:28.741Z,0.77
2023-05-04T07:11:28.783Z,0.77
2023-05-04T07:12:28.728Z,0.77
2023-05-04T07:13:29.333Z,0.78
2023-05-04T07:14:28.703Z,0.77
2023-05-04T07:15:28.703Z,0.76
2023-05-04T07:16:28.724Z,0.77
2023-05-04T07:17:28.726Z,0.76
2023-05-04T07:18:28.867Z,0.76
2023-05-04T07:19:28.667Z,0.76
2023-05-04T07:20:28.674Z,0.76
2023-05-04T07:21:29.441Z,0.75
2023-05-04T07:22:28.646Z,0.76
2023-05-04T07:23:28.861Z,0.76
2023-05-04T07:24:28.694Z,0.76
2023-05-04T07:25:28.760Z,0.76
2023-05-04T07:26:28.847Z,0.76
2023-05-04T07:27:28.845Z,0.76
2023-05-04T07:28:28.877Z,0.75
2023-05-04T07:29:29.566Z,0.75
2023-05-04T07:30:29.932Z,0.76
2023-05-04T07:31:30.489Z,0.75
2023-05-04T07:33:29.911Z,0.76
2023-05-04T07:34:41.761Z,0.76
2023-05-04T07:35:28.903Z,0.76
2023-05-04T07:36:29.361Z,0.77
2023-05-04T07:37:28.927Z,0.78
2023-05-04T07:38:29.363Z,0.78
2023-05-04T07:39:29.017Z,0.80
2023-05-04T07:40:28.879Z,0.78
2023-05-04T07:41:28.895Z,0.79
2023-05-04T07:42:29.585Z,0.81
2023-05-04T07:43:29.371Z,0.82
2023-05-04T07:44:28.869Z,0.87
2023-05-04T07:45:28.852Z,0.88
2023-05-04T07:46:30.179Z,0.94
2023-05-04T07:47:28.944Z,0.96
2023-05-04T07:48:28.826Z,0.98
2023-05-04T07:49:29.864Z,1.01
2023-05-04T07:50:28.799Z,1.01
2023-05-04T07:51:28.790Z,0.89
2023-05-04T07:52:28.781Z,0.88
2023-05-04T07:53:29.845Z,0.84
2023-05-04T07:54:28.770Z,0.89
2023-05-04T07:55:28.833Z,0.92
2023-05-04T07:56:28.789Z,0.97
2023-05-04T07:57:28.741Z,1.03
2023-05-04T07:58:28.844Z,1.03
2023-05-04T07:59:28.758Z,1.03
2023-05-04T08:00:28.776Z,1.14
2023-05-04T08:01:28.823Z,1.18
2023-05-04T08:02:28.993Z,1.19
2023-05-04T08:03:29.396Z,1.22
2023-05-04T08:04:28.970Z,1.26
2023-05-04T08:05:29.425Z,1.31
2023-05-04T08:06:29.108Z,1.33
2023-05-04T08:07:29.988Z,1.38
2023-05-04T08:08:29.214Z,1.38
2023-05-04T08:09:29.273Z,1.41
2023-05-04T08:10:30.345Z,1.44
2023-05-04T08:11:29.424Z,1.45
2023-05-04T08:12:29.463Z,1.52
2023-05-04T08:13:29.525Z,1.54
2023-05-04T08:14:29.597Z,1.56
2023-05-04T08:15:29.640Z,1.57
2023-05-04T08:16:29.693Z,1.63
2023-05-04T08:17:29.826Z,1.66
2023-05-04T08:18:29.798Z,1.67
2023-05-04T08:19:30.847Z,1.71
2023-05-04T08:20:29.916Z,1.75
2023-05-04T08:21:30.925Z,1.80
2023-05-04T08:22:30.423Z,1.83
2023-05-04T08:23:30.019Z,1.88
2023-05-04T08:24:30.071Z,1.89
2023-05-04T08:25:30.123Z,1.95
2023-05-04T08:26:30.126Z,1.98
2023-05-04T08:27:30.527Z,2.01
2023-05-04T08:28:30.241Z,2.06
2023-05-04T08:29:30.287Z,2.12
2023-05-04T08:30:30.380Z,2.10
2023-05-04T08:31:30.390Z,2.14
2023-05-04T08:32:33.187Z,2.23
2023-05-04T08:33:30.393Z,2.36
2023-05-04T08:34:33.639Z,2.37
2023-05-04T08:35:30.402Z,2.38
2023-05-04T08:36:30.396Z,2.40
2023-05-04T08:37:30.501Z,2.47
2023-05-04T08:38:30.377Z,2.56
2023-05-04T08:39:30.398Z,2.64
2023-05-04T08:40:33.570Z,2.70
2023-05-04T08:41:30.387Z,2.70
2023-05-04T08:42:30.350Z,2.71
2023-05-04T08:43:30.416Z,2.74
2023-05-04T08:44:31.367Z,2.78
2023-05-04T08:45:30.742Z,2.87
2023-05-04T08:46:30.314Z,2.88
2023-05-04T08:47:30.338Z,2.91
2023-05-04T08:48:30.303Z,2.98
2023-05-04T08:49:30.389Z,3.00
2023-05-04T08:50:30.298Z,3.10
2023-05-04T08:51:30.274Z,3.08
2023-05-04T08:52:30.280Z,3.21
2023-05-04T08:53:30.376Z,3.26
2023-05-04T08:54:30.310Z,3.28
2023-05-04T08:55:30.336Z,3.35
2023-05-04T08:56:30.375Z,3.36
2023-05-04T08:57:30.427Z,3.47
2023-05-04T08:58:30.880Z,3.43
2023-05-04T08:59:30.527Z,3.64
2023-05-04T09:00:30.541Z,3.64
2023-05-04T09:01:30.646Z,3.73
2023-05-04T09:02:30.642Z,3.74
2023-05-04T09:03:30.732Z,3.81
2023-05-04T09:04:30.688Z,3.90
2023-05-04T09:05:30.876Z,3.99
2023-05-04T09:06:30.762Z,3.97
2023-05-04T09:07:30.790Z,4.08
2023-05-04T09:08:30.825Z,4.05
2023-05-04T09:09:30.854Z,4.19
2023-05-04T09:10:30.899Z,4.20
2023-05-04T09:11:30.932Z,4.29
2023-05-04T09:12:31.004Z,4.25
2023-05-04T09:13:31.014Z,4.36
2023-05-04T09:14:32.068Z,4.31
2023-05-04T09:15:31.075Z,4.42
2023-05-04T09:16:31.120Z,4.44
2023-05-04T09:17:31.211Z,4.54
2023-05-04T09:18:31.454Z,4.59
2023-05-04T09:19:31.225Z,4.67
2023-05-04T09:20:33.267Z,4.80
2023-05-04T09:21:31.280Z,4.77
2023-05-04T09:22:31.240Z,4.99
2023-05-04T09:23:31.435Z,5.08
2023-05-04T09:24:31.247Z,5.04
2023-05-04T09:25:31.238Z,5.03
2023-05-04T09:26:31.236Z,5.12
2023-05-04T09:27:31.208Z,5.19
2023-05-04T09:28:31.439Z,5.17
2023-05-04T09:29:31.175Z,5.30
2023-05-04T09:30:31.208Z,5.29
2023-05-04T09:31:31.180Z,5.33
2023-05-04T09:32:31.220Z,5.40
2023-05-04T09:33:31.438Z,5.41
2023-05-04T09:34:31.142Z,5.35
2023-05-04T09:35:33.960Z,5.35
2023-05-04T09:36:46.737Z,5.36
2023-05-04T09:37:31.113Z,5.37
2023-05-04T09:38:32.410Z,5.42
2023-05-04T09:39:31.430Z,5.53
2023-05-04T09:40:31.107Z,5.61
2023-05-04T09:41:31.494Z,5.82
2023-05-04T09:42:31.092Z,6.00
2023-05-04T09:43:31.086Z,5.88
2023-05-04T09:44:31.418Z,5.89
2023-05-04T09:45:31.080Z,5.97
2023-05-04T09:46:31.197Z,5.97
2023-05-04T09:47:31.160Z,6.08
2023-05-04T09:48:31.144Z,6.06
2023-05-04T09:49:31.199Z,6.14
2023-05-04T09:50:31.177Z,6.20
2023-05-04T09:51:31.223Z,6.31
2023-05-04T09:52:31.229Z,6.28
2023-05-04T09:53:31.403Z,6.34
2023-05-04T09:54:31.298Z,6.37
2023-05-04T09:55:31.312Z,6.50
2023-05-04T09:56:31.358Z,6.47
2023-05-04T09:57:31.375Z,6.52
2023-05-04T09:58:31.431Z,6.62
2023-05-04T09:59:31.406Z,6.67
2023-05-04T10:00:31.418Z,6.75
2023-05-04T10:01:32.522Z,6.86
2023-05-04T10:02:31.735Z,7.00
2023-05-04T10:03:31.925Z,6.99
2023-05-04T10:04:31.928Z,7.11
2023-05-04T10:05:31.597Z,7.17
2023-05-04T10:06:31.536Z,7.38
2023-05-04T10:07:31.575Z,7.54
2023-05-04T10:08:31.567Z,7.54
2023-05-04T10:09:32.902Z,7.81
2023-05-04T10:10:31.602Z,7.76
2023-05-04T10:11:31.636Z,7.80
2023-05-04T10:12:31.642Z,7.90
2023-05-04T10:13:31.654Z,8.01
2023-05-04T10:14:31.907Z,7.97
2023-05-04T10:15:31.686Z,8.15
2023-05-04T10:16:34.963Z,8.24
2023-05-04T10:17:31.722Z,8.25
2023-05-04T10:18:31.930Z,8.26
2023-05-04T10:19:31.667Z,8.28
2023-05-04T10:20:31.666Z,8.44
2023-05-04T10:21:31.702Z,8.65
2023-05-04T10:22:31.909Z,8.65
2023-05-04T10:23:31.932Z,8.44
2023-05-04T10:24:31.638Z,8.65
2023-05-04T10:25:31.633Z,8.76
2023-05-04T10:26:32.411Z,8.89
2023-05-04T10:27:31.616Z,9.07
2023-05-04T10:28:31.942Z,9.10
2023-05-04T10:29:31.619Z,9.20
2023-05-04T10:30:31.605Z,9.26
2023-05-04T10:31:31.633Z,9.36
2023-05-04T10:32:31.641Z,9.26
2023-05-04T10:33:32.011Z,9.30
2023-05-04T10:34:31.626Z,9.36
2023-05-04T10:35:31.564Z,9.48
2023-05-04T10:36:31.551Z,9.30
2023-05-04T10:37:31.913Z,9.51
2023-05-04T10:38:31.938Z,9.75
2023-05-04T10:39:31.921Z,9.95
2023-05-04T10:40:31.535Z,9.93
2023-05-04T10:41:31.517Z,9.80
2023-05-04T10:42:31.911Z,9.88
2023-05-04T10:43:31.500Z,9.38
2023-05-04T10:44:31.924Z,9.06
2023-05-04T10:45:31.510Z,8.22
2023-05-04T10:46:31.489Z,8.30
2023-05-04T10:47:31.519Z,8.43
2023-05-04T10:48:31.477Z,7.62
2023-05-04T10:49:31.941Z,7.48
2023-05-04T10:50:31.668Z,7.43
2023-05-04T10:51:42.302Z,7.25
2023-05-04T10:52:31.455Z,7.27
2023-05-04T10:53:31.445Z,7.27
2023-05-04T10:54:31.909Z,6.72
2023-05-04T10:55:32.408Z,6.19
2023-05-04T10:56:31.413Z,5.32
2023-05-04T10:57:31.414Z,5.57
2023-05-04T10:58:31.395Z,5.47
2023-05-04T10:59:31.412Z,5.39
2023-05-04T11:00:31.385Z,5.12
2023-05-04T11:01:31.429Z,4.75
2023-05-04T11:02:33.489Z,4.36
2023-05-04T11:03:31.494Z,4.68
2023-05-04T11:04:31.363Z,4.78
2023-05-04T11:05:31.350Z,4.16
2023-05-04T11:06:31.364Z,3.91
2023-05-04T11:07:31.484Z,3.58
2023-05-04T11:08:31.331Z,3.73
2023-05-04T11:09:31.420Z,3.72
2023-05-04T11:10:31.310Z,3.46
2023-05-04T11:11:31.309Z,3.74
2023-05-04T11:12:31.324Z,3.88
2023-05-04T11:13:31.297Z,3.88
2023-05-04T11:14:31.418Z,4.00
2023-05-04T11:15:31.279Z,4.08
2023-05-04T11:16:31.324Z,4.02
2023-05-04T11:17:31.296Z,3.99
2023-05-04T11:18:31.258Z,3.98
2023-05-04T11:19:31.425Z,3.98
2023-05-04T11:20:31.238Z,3.93
2023-05-04T11:21:31.235Z,3.93
2023-05-04T11:22:31.265Z,3.98
2023-05-04T11:23:31.217Z,3.91
2023-05-04T11:24:31.439Z,3.94
2023-05-04T11:25:31.215Z,3.84
2023-05-04T11:26:31.203Z,3.87
2023-05-04T11:27:31.186Z,3.89
2023-05-04T11:28:31.209Z,3.92
2023-05-04T11:29:31.550Z,3.77
2023-05-04T11:30:31.354Z,3.84
2023-05-04T11:31:31.206Z,3.80
2023-05-04T11:32:31.190Z,3.80
2023-05-04T11:33:31.143Z,3.82
2023-05-04T11:34:31.454Z,3.78
2023-05-04T11:35:31.125Z,3.76
2023-05-04T11:36:31.136Z,3.73
2023-05-04T11:37:31.118Z,3.69
2023-05-04T11:38:31.139Z,3.74
2023-05-04T11:39:31.428Z,3.74
2023-05-04T11:40:31.130Z,3.76
2023-05-04T11:41:31.086Z,3.76
2023-05-04T11:42:31.086Z,3.72
2023-05-04T11:43:31.127Z,3.75
2023-05-04T11:44:31.169Z,3.76
2023-05-04T11:45:31.181Z,3.73
2023-05-04T11:46:31.265Z,3.69
2023-05-04T11:47:31.355Z,3.71
2023-05-04T11:48:31.330Z,3.64
2023-05-04T11:49:31.383Z,3.63
2023-05-04T11:50:31.423Z,3.63
2023-05-04T11:51:31.463Z,3.57
2023-05-04T11:52:31.522Z,3.62
2023-05-04T11:53:31.577Z,3.56
2023-05-04T11:54:31.693Z,3.59
2023-05-04T11:55:31.653Z,3.53
2023-05-04T11:56:31.698Z,3.58
2023-05-04T11:57:31.760Z,3.52
2023-05-04T11:58:31.808Z,3.47
2023-05-04T11:59:31.864Z,3.48
2023-05-04T12:00:31.895Z,3.45
2023-05-04T12:01:31.956Z,3.48
2023-05-04T12:02:32.154Z,3.43
2023-05-04T12:03:43.912Z,3.44
2023-05-04T12:04:32.040Z,3.45
2023-05-04T12:05:32.040Z,3.46
2023-05-04T12:06:32.033Z,3.45
2023-05-04T12:07:32.024Z,3.44
2023-05-04T12:08:32.463Z,3.46
2023-05-04T12:09:32.481Z,3.41
2023-05-04T12:10:39.427Z,3.39
2023-05-04T12:11:32.451Z,3.40
2023-05-04T12:12:33.378Z,3.40
2023-05-04T12:13:32.027Z,3.41
2023-05-04T12:14:32.442Z,3.35
2023-05-04T12:15:32.449Z,3.37
2023-05-04T12:16:32.196Z,3.40
2023-05-04T12:17:32.237Z,3.32
2023-05-04T12:18:32.244Z,3.35
2023-05-04T12:19:32.301Z,3.29
2023-05-04T12:20:32.363Z,3.26
2023-05-04T12:21:32.406Z,3.22
2023-05-04T12:22:32.474Z,3.18
2023-05-04T12:23:32.540Z,3.21
2023-05-04T12:24:32.577Z,3.17
2023-05-04T12:25:32.828Z,3.18
2023-05-04T12:26:32.739Z,3.13
2023-05-04T12:27:32.749Z,3.16
2023-05-04T12:28:32.820Z,3.15
2023-05-04T12:29:32.858Z,3.13
2023-05-04T12:30:32.952Z,3.10
2023-05-04T12:31:33.008Z,3.04
2023-05-04T12:32:33.082Z,3.08
2023-05-04T12:33:33.119Z,3.06
2023-05-04T12:34:33.165Z,3.07
2023-05-04T12:35:33.224Z,3.08
2023-05-04T12:36:34.276Z,3.01
2023-05-04T12:37:33.336Z,2.99
2023-05-04T12:38:33.393Z,2.98
2023-05-04T12:39:33.458Z,3.02
2023-05-04T12:40:33.533Z,3.02
2023-05-04T12:41:33.620Z,2.96
2023-05-04T12:42:33.674Z,2.99
2023-05-04T12:43:33.732Z,2.97
2023-05-04T12:44:33.959Z,2.94
2023-05-04T12:45:33.840Z,2.97
2023-05-04T12:46:33.980Z,2.92
2023-05-04T12:47:33.971Z,2.95
2023-05-04T12:48:34.040Z,2.93
2023-05-04T12:49:34.096Z,2.93
2023-05-04T12:50:34.172Z,2.88
2023-05-04T12:51:34.224Z,2.88
2023-05-04T12:52:34.281Z,2.86
2023-05-04T12:53:34.360Z,2.87
2023-05-04T12:54:34.418Z,2.81
2023-05-04T12:55:34.466Z,2.85
2023-05-04T12:56:34.975Z,2.85
2023-05-04T12:57:34.592Z,2.79
2023-05-04T12:58:34.771Z,2.75
2023-05-04T12:59:34.962Z,2.75
2023-05-04T13:00:35.781Z,2.78
2023-05-04T13:01:34.967Z,2.76
2023-05-04T13:02:34.983Z,2.74
2023-05-04T13:03:35.123Z,2.68
2023-05-04T13:04:35.460Z,2.70
2023-05-04T13:05:35.103Z,2.70
2023-05-04T13:06:35.162Z,2.65
2023-05-04T13:07:35.222Z,2.70
2023-05-04T13:08:35.282Z,2.64
2023-05-04T13:09:35.464Z,2.58
2023-05-04T13:10:35.411Z,2.61
2023-05-04T13:11:35.466Z,2.63
2023-05-04T13:12:35.537Z,2.55
2023-05-04T13:13:35.609Z,2.56
2023-05-04T13:14:39.279Z,2.55
2023-05-04T13:15:35.673Z,2.55
2023-05-04T13:16:35.694Z,2.55
2023-05-04T13:17:35.661Z,2.55
2023-05-04T13:18:35.645Z,2.55
2023-05-04T13:19:35.625Z,2.55
2023-05-04T13:20:35.669Z,2.51